createdAt,value
2017-03-19T00:00:00.223Z,0
2017-03-19T00:01:11.450Z,0
2017-03-19T00:02:22.687Z,0
2017-03-19T00:03:33.785Z,0
2017-03-19T00:04:44.821Z,0
2017-03-19T00:05:55.851Z,0
2017-03-19T00:07:06.881Z,0
2017-03-19T00:08:18.109Z,0
2017-03-19T00:09:29.345Z,0
2017-03-19T00:10:40.371Z,0
2017-03-19T00:11:51.397Z,0
2017-03-19T00:13:02.429Z,0
2017-03-19T00:14:13.721Z,0
2017-03-19T00:15:24.949Z,0
2017-03-19T00:16:35.973Z,0
2017-03-19T00:17:47.202Z,0
2017-03-19T00:18:58.239Z,0
2017-03-19T00:20:09.266Z,0
2017-03-19T00:21:20.296Z,0
2017-03-19T00:22:31.525Z,0
2017-03-19T00:23:42.571Z,0
2017-03-19T00:24:53.847Z,0
2017-03-19T00:26:04.874Z,0
2017-03-19T00:27:16.098Z,0
2017-03-19T00:28:27.136Z,0
2017-03-19T00:29:38.367Z,0
2017-03-19T00:30:49.595Z,0
2017-03-19T00:32:00.652Z,0
2017-03-19T00:33:11.680Z,0
2017-03-19T00:34:22.709Z,0
2017-03-19T00:35:33.741Z,0
2017-03-19T00:36:44.760Z,0
2017-03-19T00:37:55.816Z,0
2017-03-19T00:39:06.878Z,0
2017-03-19T00:40:17.907Z,0
2017-03-19T00:41:28.935Z,0
2017-03-19T00:42:39.962Z,0
2017-03-19T00:43:50.999Z,0
2017-03-19T00:45:02.033Z,0
2017-03-19T00:46:13.146Z,0
2017-03-19T00:47:24.178Z,0
2017-03-19T00:48:35.219Z,0
2017-03-19T00:49:46.257Z,0
2017-03-19T00:50:57.288Z,0
2017-03-19T00:52:08.333Z,0
2017-03-19T00:53:19.371Z,0
2017-03-19T00:54:30.407Z,0
2017-03-19T00:55:41.645Z,0
2017-03-19T00:56:52.720Z,0
2017-03-19T00:58:03.766Z,0
2017-03-19T00:59:14.797Z,0
2017-03-19T01:00:25.835Z,0
2017-03-19T01:01:36.863Z,0
2017-03-19T01:02:48.150Z,0
2017-03-19T01:03:59.195Z,0
2017-03-19T01:05:10.220Z,0
2017-03-19T01:06:21.250Z,0
2017-03-19T01:07:32.531Z,0
2017-03-19T01:08:43.594Z,0
2017-03-19T01:09:54.629Z,0
2017-03-19T01:11:05.655Z,0
2017-03-19T01:12:16.676Z,0
2017-03-19T01:13:27.914Z,0
2017-03-19T01:14:38.942Z,0
2017-03-19T01:15:49.971Z,0
2017-03-19T01:17:00.997Z,0
2017-03-19T01:18:12.086Z,0
2017-03-19T01:19:23.128Z,0
2017-03-19T01:20:34.166Z,0
2017-03-19T01:21:45.194Z,0
2017-03-19T01:22:56.230Z,0
2017-03-19T01:24:07.277Z,0
2017-03-19T01:25:18.315Z,0
2017-03-19T01:26:29.337Z,0
2017-03-19T01:27:40.370Z,0
2017-03-19T01:28:51.599Z,0
2017-03-19T01:30:02.881Z,0
2017-03-19T01:31:13.913Z,0
2017-03-19T01:32:24.936Z,0
2017-03-19T01:33:36.003Z,0
2017-03-19T01:34:47.233Z,0
2017-03-19T01:35:58.250Z,0
2017-03-19T01:37:09.477Z,0
2017-03-19T01:38:20.702Z,0
2017-03-19T01:39:31.783Z,0
2017-03-19T01:40:42.807Z,0
2017-03-19T01:41:53.828Z,0
2017-03-19T01:43:05.061Z,0
2017-03-19T01:44:16.103Z,0
2017-03-19T01:45:27.132Z,0
2017-03-19T01:46:38.161Z,0
2017-03-19T01:47:49.215Z,0
2017-03-19T01:49:00.249Z,0
2017-03-19T01:50:11.532Z,0
2017-03-19T01:51:22.753Z,0
2017-03-19T01:52:33.781Z,0
2017-03-19T01:53:45.015Z,0
2017-03-19T01:54:56.081Z,0
2017-03-19T01:56:07.112Z,0
2017-03-19T01:57:18.138Z,0
2017-03-19T01:58:29.168Z,0
2017-03-19T01:59:40.605Z,0
2017-03-19T02:00:51.692Z,0
2017-03-19T02:02:02.717Z,0
2017-03-19T02:03:13.748Z,0
2017-03-19T02:04:24.782Z,0
2017-03-19T02:05:35.809Z,0
2017-03-19T02:06:47.097Z,0
2017-03-19T02:07:58.329Z,0
2017-03-19T02:09:09.563Z,0
2017-03-19T02:10:20.585Z,0
2017-03-19T02:11:31.606Z,0
2017-03-19T02:12:42.646Z,0
2017-03-19T02:13:53.672Z,0
2017-03-19T02:15:04.784Z,0
2017-03-19T02:16:15.816Z,0
2017-03-19T02:17:26.848Z,0
2017-03-19T02:18:37.936Z,0
2017-03-19T02:19:48.971Z,0
2017-03-19T02:21:00.197Z,0
2017-03-19T02:22:11.222Z,0
2017-03-19T02:23:22.248Z,0
2017-03-19T02:24:33.681Z,0
2017-03-19T02:25:44.702Z,0
2017-03-19T02:26:55.724Z,0
2017-03-19T02:28:06.796Z,0
2017-03-19T02:29:17.832Z,0
2017-03-19T02:30:28.865Z,0
2017-03-19T02:31:39.888Z,0
2017-03-19T02:32:50.916Z,0
2017-03-19T02:34:01.939Z,0
2017-03-19T02:35:13.161Z,0
2017-03-19T02:36:24.191Z,0
2017-03-19T02:37:35.218Z,0
2017-03-19T02:38:46.298Z,0
2017-03-19T02:39:57.727Z,0
2017-03-19T02:41:08.758Z,0
2017-03-19T02:42:20.179Z,0
2017-03-19T02:43:31.216Z,0
2017-03-19T02:44:42.257Z,0
2017-03-19T02:45:53.286Z,0
2017-03-19T02:47:04.519Z,0
2017-03-19T02:48:15.541Z,0
2017-03-19T02:49:26.856Z,0
2017-03-19T02:50:37.889Z,0
2017-03-19T02:51:48.912Z,0
2017-03-19T02:53:00.142Z,0
2017-03-19T02:54:11.168Z,0
2017-03-19T02:55:22.452Z,0
2017-03-19T02:56:33.488Z,0
2017-03-19T02:57:44.930Z,0
2017-03-19T02:58:56.160Z,0
2017-03-19T03:00:07.202Z,0
2017-03-19T03:01:18.223Z,0
2017-03-19T03:02:29.247Z,0
2017-03-19T03:03:40.473Z,0
2017-03-19T03:04:51.503Z,0
2017-03-19T03:06:02.777Z,0
2017-03-19T03:07:13.802Z,0
2017-03-19T03:08:24.837Z,0
2017-03-19T03:09:36.069Z,0
2017-03-19T03:10:47.088Z,0
2017-03-19T03:11:58.117Z,0
2017-03-19T03:13:09.147Z,0
2017-03-19T03:14:20.370Z,0
2017-03-19T03:15:31.401Z,0
2017-03-19T03:16:42.706Z,0
2017-03-19T03:17:53.734Z,0
2017-03-19T03:19:04.781Z,0
2017-03-19T03:20:15.808Z,0
2017-03-19T03:21:27.054Z,0
2017-03-19T03:22:38.283Z,0
2017-03-19T03:23:49.515Z,0
2017-03-19T03:25:00.740Z,0
2017-03-19T03:26:11.756Z,0
2017-03-19T03:27:23.230Z,0
2017-03-19T03:28:34.263Z,0
2017-03-19T03:29:45.306Z,0
2017-03-19T03:30:56.330Z,0
2017-03-19T03:32:07.361Z,0
2017-03-19T03:33:18.395Z,0
2017-03-19T03:34:29.636Z,0
2017-03-19T03:35:40.662Z,0
2017-03-19T03:36:51.678Z,0
2017-03-19T03:38:02.998Z,0
2017-03-19T03:39:14.235Z,0
2017-03-19T03:40:25.262Z,0
2017-03-19T03:41:36.286Z,0
2017-03-19T03:42:47.346Z,0
2017-03-19T03:43:58.383Z,0
2017-03-19T03:45:09.408Z,0
2017-03-19T03:46:20.430Z,0
2017-03-19T03:47:31.455Z,0
2017-03-19T03:48:42.516Z,0
2017-03-19T03:49:53.750Z,0
2017-03-19T03:51:04.967Z,0
2017-03-19T03:52:15.991Z,0
2017-03-19T03:53:27.029Z,0
2017-03-19T03:54:38.345Z,0
2017-03-19T03:55:49.374Z,0
2017-03-19T03:57:00.390Z,0
2017-03-19T03:58:11.405Z,0
2017-03-19T03:59:22.436Z,0
2017-03-19T04:00:33.466Z,0
2017-03-19T04:01:44.491Z,0
2017-03-19T04:02:55.729Z,0
2017-03-19T04:04:06.962Z,0
2017-03-19T04:05:18.239Z,0
2017-03-19T04:06:29.272Z,0
2017-03-19T04:07:40.513Z,0
2017-03-19T04:08:51.546Z,0
2017-03-19T04:10:02.588Z,0
2017-03-19T04:11:13.814Z,0
2017-03-19T04:12:25.048Z,0
2017-03-19T04:13:36.096Z,0
2017-03-19T04:14:47.133Z,0
2017-03-19T04:15:58.449Z,0
2017-03-19T04:17:09.681Z,0
2017-03-19T04:18:20.912Z,0
2017-03-19T04:19:31.944Z,0
2017-03-19T04:20:43.180Z,0
2017-03-19T04:21:54.213Z,0
2017-03-19T04:23:05.446Z,0
2017-03-19T04:24:16.486Z,0
2017-03-19T04:25:27.515Z,0
2017-03-19T04:26:38.600Z,0
2017-03-19T04:27:49.830Z,0
2017-03-19T04:29:00.867Z,0
2017-03-19T04:30:12.092Z,0
2017-03-19T04:31:23.123Z,0
2017-03-19T04:32:34.153Z,0
2017-03-19T04:33:45.234Z,0
2017-03-19T04:34:56.261Z,0
2017-03-19T04:36:07.498Z,0
2017-03-19T04:37:18.525Z,0
2017-03-19T04:38:29.809Z,0
2017-03-19T04:39:40.845Z,0
2017-03-19T04:40:51.905Z,0
2017-03-19T04:42:02.930Z,0
2017-03-19T04:43:14.157Z,0
2017-03-19T04:44:25.179Z,0
2017-03-19T04:45:36.200Z,0
2017-03-19T04:46:47.230Z,0
2017-03-19T04:47:58.767Z,0
2017-03-19T04:49:09.802Z,0
2017-03-19T04:50:21.226Z,0
2017-03-19T04:51:32.261Z,0
2017-03-19T04:52:43.293Z,0
2017-03-19T04:53:54.328Z,0
2017-03-19T04:55:05.355Z,0
2017-03-19T04:56:16.388Z,0
2017-03-19T04:57:27.426Z,0
2017-03-19T04:58:38.514Z,0
2017-03-19T04:59:49.543Z,0
2017-03-19T05:01:00.568Z,0
2017-03-19T05:02:11.789Z,0
2017-03-19T05:03:23.021Z,0
2017-03-19T05:04:34.058Z,0
2017-03-19T05:05:45.285Z,0
2017-03-19T05:06:56.304Z,0
2017-03-19T05:08:07.336Z,0
2017-03-19T05:09:18.426Z,0
2017-03-19T05:10:29.449Z,4
2017-03-19T05:11:40.461Z,4
2017-03-19T05:12:51.481Z,0
2017-03-19T05:14:02.507Z,4
2017-03-19T05:15:13.740Z,4
2017-03-19T05:16:24.965Z,4
2017-03-19T05:17:36.007Z,4
2017-03-19T05:18:47.032Z,4
2017-03-19T05:19:58.061Z,8
2017-03-19T05:21:09.094Z,4
2017-03-19T05:22:20.318Z,8
2017-03-19T05:23:31.354Z,12
2017-03-19T05:24:42.384Z,16
2017-03-19T05:25:53.465Z,20
2017-03-19T05:27:04.497Z,20
2017-03-19T05:28:15.524Z,24
2017-03-19T05:29:26.567Z,28
2017-03-19T05:30:37.598Z,32
2017-03-19T05:31:48.816Z,36
2017-03-19T05:32:59.847Z,40
2017-03-19T05:34:10.876Z,48
2017-03-19T05:35:22.110Z,52
2017-03-19T05:36:33.179Z,56
2017-03-19T05:37:44.213Z,52
2017-03-19T05:38:55.249Z,52
2017-03-19T05:40:06.287Z,64
2017-03-19T05:41:17.518Z,68
2017-03-19T05:42:28.747Z,68
2017-03-19T05:43:39.792Z,68
2017-03-19T05:44:51.016Z,64
2017-03-19T05:46:02.043Z,88
2017-03-19T05:47:13.328Z,100
2017-03-19T05:48:24.377Z,116
2017-03-19T05:49:35.410Z,116
2017-03-19T05:50:46.433Z,116
2017-03-19T05:51:57.463Z,112
2017-03-19T05:53:08.497Z,92
2017-03-19T05:54:19.772Z,104
2017-03-19T05:55:30.790Z,152
2017-03-19T05:56:41.821Z,212
2017-03-19T05:57:52.898Z,236
2017-03-19T05:59:03.929Z,284
2017-03-19T06:00:14.965Z,272
2017-03-19T06:01:25.984Z,272
2017-03-19T06:02:37.019Z,296
2017-03-19T06:03:48.259Z,316
2017-03-19T06:04:59.296Z,360
2017-03-19T06:06:10.320Z,364
2017-03-19T06:07:21.347Z,308
2017-03-19T06:08:32.378Z,304
2017-03-19T06:09:43.407Z,348
2017-03-19T06:10:54.437Z,340
2017-03-19T06:12:05.459Z,332
2017-03-19T06:13:16.483Z,332
2017-03-19T06:14:27.797Z,332
2017-03-19T06:15:38.868Z,360
2017-03-19T06:16:49.899Z,376
2017-03-19T06:18:00.952Z,328
2017-03-19T06:19:11.990Z,280
2017-03-19T06:20:23.218Z,308
2017-03-19T06:21:34.244Z,356
2017-03-19T06:22:45.276Z,472
2017-03-19T06:23:56.504Z,536
2017-03-19T06:25:07.586Z,488
2017-03-19T06:26:18.610Z,424
2017-03-19T06:27:29.637Z,456
2017-03-19T06:28:40.680Z,488
2017-03-19T06:29:51.915Z,544
2017-03-19T06:31:02.941Z,584
2017-03-19T06:32:13.965Z,608
2017-03-19T06:33:24.991Z,608
2017-03-19T06:34:36.035Z,624
2017-03-19T06:35:47.117Z,612
2017-03-19T06:36:58.143Z,740
2017-03-19T06:38:09.369Z,668
2017-03-19T06:39:20.587Z,700
2017-03-19T06:40:31.612Z,664
2017-03-19T06:41:42.648Z,660
2017-03-19T06:42:53.880Z,752
2017-03-19T06:44:05.104Z,812
2017-03-19T06:45:16.138Z,832
2017-03-19T06:46:27.365Z,916
2017-03-19T06:47:38.395Z,860
2017-03-19T06:48:49.411Z,908
2017-03-19T06:50:00.439Z,1128
2017-03-19T06:51:11.462Z,996
2017-03-19T06:52:22.488Z,1076
2017-03-19T06:53:33.551Z,1164
2017-03-19T06:54:44.586Z,1180
2017-03-19T06:55:55.815Z,1060
2017-03-19T06:57:07.099Z,1004
2017-03-19T06:58:18.334Z,868
2017-03-19T06:59:29.357Z,892
2017-03-19T07:00:40.585Z,948
2017-03-19T07:01:51.637Z,688
2017-03-19T07:03:02.672Z,732
2017-03-19T07:04:13.900Z,584
2017-03-19T07:05:24.954Z,712
2017-03-19T07:06:36.178Z,588
2017-03-19T07:07:47.297Z,644
2017-03-19T07:08:58.326Z,628
2017-03-19T07:10:09.367Z,576
2017-03-19T07:11:20.423Z,524
2017-03-19T07:12:31.444Z,604
2017-03-19T07:13:42.474Z,704
2017-03-19T07:14:53.496Z,720
2017-03-19T07:16:04.528Z,976
2017-03-19T07:17:15.586Z,908
2017-03-19T07:18:26.662Z,816
2017-03-19T07:19:37.886Z,892
2017-03-19T07:20:48.945Z,820
2017-03-19T07:21:59.975Z,768
2017-03-19T07:23:11.213Z,852
2017-03-19T07:24:22.244Z,1184
2017-03-19T07:25:33.273Z,1216
2017-03-19T07:26:44.308Z,1224
2017-03-19T07:27:55.547Z,1064
2017-03-19T07:29:07.084Z,1020
2017-03-19T07:30:18.122Z,988
2017-03-19T07:31:29.154Z,948
2017-03-19T07:32:40.187Z,1060
2017-03-19T07:33:51.419Z,980
2017-03-19T07:35:02.452Z,952
2017-03-19T07:36:13.478Z,912
2017-03-19T07:37:24.514Z,1080
2017-03-19T07:38:35.550Z,996
2017-03-19T07:39:46.626Z,976
2017-03-19T07:40:57.647Z,900
2017-03-19T07:42:08.704Z,1252
2017-03-19T07:43:19.951Z,1312
2017-03-19T07:44:30.999Z,1700
2017-03-19T07:45:42.277Z,1608
2017-03-19T07:46:53.296Z,1716
2017-03-19T07:48:04.539Z,1840
2017-03-19T07:49:15.567Z,1748
2017-03-19T07:50:26.605Z,2380
2017-03-19T07:51:37.636Z,2804
2017-03-19T07:52:48.675Z,3228
2017-03-19T07:53:59.698Z,2252
2017-03-19T07:55:10.932Z,2368
2017-03-19T07:56:22.210Z,1836
2017-03-19T07:57:33.450Z,2044
2017-03-19T07:58:44.898Z,2160
2017-03-19T07:59:55.937Z,2092
2017-03-19T08:01:06.968Z,2104
2017-03-19T08:02:18.003Z,1976
2017-03-19T08:03:29.060Z,2308
2017-03-19T08:04:40.294Z,2380
2017-03-19T08:05:51.320Z,2164
2017-03-19T08:07:02.408Z,2332
2017-03-19T08:08:13.441Z,2588
2017-03-19T08:09:24.467Z,2592
2017-03-19T08:10:35.482Z,2528
2017-03-19T08:11:46.505Z,2468
2017-03-19T08:12:57.541Z,2260
2017-03-19T08:14:08.571Z,2212
2017-03-19T08:15:19.603Z,1940
2017-03-19T08:16:30.629Z,1732
2017-03-19T08:17:41.905Z,1880
2017-03-19T08:18:53.138Z,1716
2017-03-19T08:20:04.179Z,1540
2017-03-19T08:21:15.210Z,1696
2017-03-19T08:22:26.238Z,1572
2017-03-19T08:23:37.268Z,1276
2017-03-19T08:24:48.714Z,1424
2017-03-19T08:25:59.773Z,1384
2017-03-19T08:27:10.797Z,1320
2017-03-19T08:28:22.046Z,1332
2017-03-19T08:29:33.136Z,1420
2017-03-19T08:30:44.159Z,1372
2017-03-19T08:31:55.397Z,1548
2017-03-19T08:33:06.434Z,1576
2017-03-19T08:34:17.469Z,1400
2017-03-19T08:35:28.502Z,1312
2017-03-19T08:36:39.729Z,1696
2017-03-19T08:37:50.958Z,1644
2017-03-19T08:39:02.035Z,2236
2017-03-19T08:40:13.066Z,2236
2017-03-19T08:41:24.125Z,1704
2017-03-19T08:42:35.169Z,2044
2017-03-19T08:43:46.412Z,1728
2017-03-19T08:44:57.448Z,1656
2017-03-19T08:46:08.474Z,1768
2017-03-19T08:47:19.514Z,1852
2017-03-19T08:48:30.539Z,1900
2017-03-19T08:49:41.626Z,1852
2017-03-19T08:50:52.691Z,1676
2017-03-19T08:52:03.918Z,1564
2017-03-19T08:53:15.151Z,1408
2017-03-19T08:54:26.176Z,1560
2017-03-19T08:55:37.406Z,1584
2017-03-19T08:56:48.427Z,1648
2017-03-19T08:57:59.657Z,1960
2017-03-19T08:59:10.694Z,1888
2017-03-19T09:00:21.724Z,1932
2017-03-19T09:01:32.753Z,2016
2017-03-19T09:02:43.786Z,1844
2017-03-19T09:03:54.824Z,2152
2017-03-19T09:05:05.909Z,2048
2017-03-19T09:06:16.935Z,2028
2017-03-19T09:07:27.959Z,1964
2017-03-19T09:08:38.988Z,2008
2017-03-19T09:09:50.034Z,1932
2017-03-19T09:11:01.269Z,1620
2017-03-19T09:12:12.291Z,1604
2017-03-19T09:13:23.510Z,1700
2017-03-19T09:14:34.541Z,1728
2017-03-19T09:15:45.575Z,1816
2017-03-19T09:16:56.649Z,1840
2017-03-19T09:18:07.674Z,1600
2017-03-19T09:19:18.912Z,1396
2017-03-19T09:20:29.947Z,1332
2017-03-19T09:21:41.169Z,1200
2017-03-19T09:22:52.203Z,1192
2017-03-19T09:24:03.238Z,1380
2017-03-19T09:25:14.277Z,1272
2017-03-19T09:26:25.356Z,1236
2017-03-19T09:27:36.396Z,1300
2017-03-19T09:28:47.435Z,1248
2017-03-19T09:29:58.466Z,1332
2017-03-19T09:31:09.493Z,1244
2017-03-19T09:32:20.524Z,1192
2017-03-19T09:33:31.760Z,1208
2017-03-19T09:34:42.803Z,1108
2017-03-19T09:35:53.830Z,1240
2017-03-19T09:37:05.110Z,1116
2017-03-19T09:38:16.150Z,996
2017-03-19T09:39:27.183Z,1164
2017-03-19T09:40:38.224Z,1268
2017-03-19T09:41:49.451Z,1176
2017-03-19T09:43:00.499Z,1256
2017-03-19T09:44:11.525Z,1356
2017-03-19T09:45:22.560Z,1480
2017-03-19T09:46:33.599Z,1596
2017-03-19T09:47:44.675Z,1764
2017-03-19T09:48:55.713Z,1616
2017-03-19T09:50:07.148Z,1552
2017-03-19T09:51:18.373Z,1692
2017-03-19T09:52:29.409Z,1700
2017-03-19T09:53:40.456Z,2340
2017-03-19T09:54:51.484Z,2536
2017-03-19T09:56:02.512Z,2648
2017-03-19T09:57:13.540Z,2284
2017-03-19T09:58:24.573Z,2152
2017-03-19T09:59:35.607Z,2504
2017-03-19T10:00:46.637Z,2872
2017-03-19T10:01:57.697Z,2692
2017-03-19T10:03:09.129Z,2932
2017-03-19T10:04:20.227Z,2888
2017-03-19T10:05:31.254Z,2640
2017-03-19T10:06:42.510Z,2480
2017-03-19T10:07:53.542Z,2152
2017-03-19T10:09:04.576Z,2152
2017-03-19T10:10:15.598Z,2460
2017-03-19T10:11:26.637Z,2384
2017-03-19T10:12:37.668Z,2412
2017-03-19T10:13:48.909Z,2632
2017-03-19T10:14:59.996Z,2956
2017-03-19T10:16:11.445Z,3260
2017-03-19T10:17:22.505Z,3576
2017-03-19T10:18:33.547Z,4096
2017-03-19T10:19:44.581Z,3664
2017-03-19T10:20:55.617Z,2720
2017-03-19T10:22:06.642Z,2712
2017-03-19T10:23:17.678Z,2636
2017-03-19T10:24:28.710Z,2436
2017-03-19T10:25:39.985Z,2744
2017-03-19T10:26:51.035Z,2172
2017-03-19T10:28:02.071Z,2196
2017-03-19T10:29:13.111Z,2164
2017-03-19T10:30:24.372Z,2016
2017-03-19T10:31:35.403Z,1720
2017-03-19T10:32:46.444Z,1768
2017-03-19T10:33:57.480Z,2128
2017-03-19T10:35:08.512Z,1976
2017-03-19T10:36:19.600Z,2368
2017-03-19T10:37:30.836Z,1820
2017-03-19T10:38:41.870Z,1508
2017-03-19T10:39:52.899Z,1600
2017-03-19T10:41:03.923Z,1604
2017-03-19T10:42:15.153Z,1332
2017-03-19T10:43:26.395Z,1212
2017-03-19T10:44:37.433Z,1224
2017-03-19T10:45:48.509Z,1312
2017-03-19T10:46:59.746Z,1512
2017-03-19T10:48:10.842Z,1464
2017-03-19T10:49:22.083Z,1400
2017-03-19T10:50:33.131Z,1264
2017-03-19T10:51:44.568Z,1376
2017-03-19T10:52:55.595Z,1412
2017-03-19T10:54:06.630Z,1244
2017-03-19T10:55:17.662Z,1240
2017-03-19T10:56:28.722Z,1260
2017-03-19T10:57:40.051Z,1280
2017-03-19T10:58:51.285Z,1460
2017-03-19T11:00:02.330Z,1300
2017-03-19T11:01:13.352Z,1520
2017-03-19T11:02:24.382Z,1824
2017-03-19T11:03:35.829Z,1964
2017-03-19T11:04:47.071Z,1908
2017-03-19T11:05:58.096Z,1740
2017-03-19T11:07:09.125Z,2176
2017-03-19T11:08:20.211Z,2308
2017-03-19T11:09:31.249Z,2576
2017-03-19T11:10:42.276Z,2924
2017-03-19T11:11:53.327Z,2536
2017-03-19T11:13:04.568Z,2036
2017-03-19T11:14:15.817Z,2216
2017-03-19T11:15:26.845Z,2296
2017-03-19T11:16:38.110Z,1960
2017-03-19T11:17:49.148Z,1796
2017-03-19T11:19:00.232Z,2064
2017-03-19T11:20:11.463Z,2048
2017-03-19T11:21:22.698Z,2276
2017-03-19T11:22:33.731Z,2396
2017-03-19T11:23:44.776Z,2308
2017-03-19T11:24:56.106Z,2116
2017-03-19T11:26:07.375Z,3360
2017-03-19T11:27:18.613Z,4504
2017-03-19T11:28:29.649Z,6308
2017-03-19T11:29:40.685Z,6412
2017-03-19T11:30:51.911Z,6248
2017-03-19T11:32:02.933Z,5596
2017-03-19T11:33:14.172Z,5384
2017-03-19T11:34:25.421Z,5488
2017-03-19T11:35:36.444Z,6048
2017-03-19T11:36:47.473Z,5540
2017-03-19T11:37:58.511Z,6108
2017-03-19T11:39:09.543Z,5672
2017-03-19T11:40:21.032Z,5376
2017-03-19T11:41:32.065Z,3860
2017-03-19T11:42:43.101Z,3896
2017-03-19T11:43:54.341Z,4812
2017-03-19T11:45:05.582Z,3872
2017-03-19T11:46:16.606Z,3432
2017-03-19T11:47:27.638Z,4416
2017-03-19T11:48:38.672Z,3016
2017-03-19T11:49:49.709Z,3852
2017-03-19T11:51:00.799Z,4928
2017-03-19T11:52:12.035Z,5680
2017-03-19T11:53:23.070Z,5116
2017-03-19T11:54:34.109Z,4620
2017-03-19T11:55:45.137Z,4144
2017-03-19T11:56:56.198Z,3908
2017-03-19T11:58:07.238Z,3320
2017-03-19T11:59:18.275Z,2228
2017-03-19T12:00:29.529Z,2080
2017-03-19T12:01:40.856Z,2248
2017-03-19T12:02:52.091Z,2392
2017-03-19T12:04:03.120Z,2188
2017-03-19T12:05:14.348Z,2180
2017-03-19T12:06:25.582Z,2284
2017-03-19T12:07:36.710Z,2160
2017-03-19T12:08:47.760Z,1980
2017-03-19T12:09:58.999Z,1932
2017-03-19T12:11:10.037Z,1880
2017-03-19T12:12:21.066Z,2180
2017-03-19T12:13:32.097Z,2076
2017-03-19T12:14:43.134Z,1888
2017-03-19T12:15:54.169Z,1844
2017-03-19T12:17:05.411Z,1516
2017-03-19T12:18:16.450Z,1600
2017-03-19T12:19:27.733Z,1776
2017-03-19T12:20:38.764Z,2276
2017-03-19T12:21:49.799Z,2268
2017-03-19T12:23:01.033Z,1744
2017-03-19T12:24:12.072Z,1628
2017-03-19T12:25:23.097Z,1820
2017-03-19T12:26:34.130Z,2120
2017-03-19T12:27:45.371Z,2292
2017-03-19T12:28:56.853Z,2284
2017-03-19T12:30:07.883Z,2180
2017-03-19T12:31:19.111Z,2240
2017-03-19T12:32:30.356Z,2188
2017-03-19T12:33:41.590Z,2280
2017-03-19T12:34:52.627Z,2220
2017-03-19T12:36:03.658Z,2300
2017-03-19T12:37:14.718Z,2508
2017-03-19T12:38:25.758Z,2232
2017-03-19T12:39:37.049Z,1940
2017-03-19T12:40:48.081Z,1896
2017-03-19T12:41:59.102Z,1988
2017-03-19T12:43:10.143Z,2104
2017-03-19T12:44:21.194Z,1696
2017-03-19T12:45:32.228Z,1568
2017-03-19T12:46:43.257Z,1520
2017-03-19T12:47:54.295Z,1400
2017-03-19T12:49:05.325Z,1420
2017-03-19T12:50:16.408Z,1648
2017-03-19T12:51:27.430Z,1524
2017-03-19T12:52:38.456Z,1504
2017-03-19T12:53:49.493Z,1412
2017-03-19T12:55:00.535Z,1652
2017-03-19T12:56:11.771Z,1976
2017-03-19T12:57:22.799Z,2444
2017-03-19T12:58:33.836Z,2732
2017-03-19T12:59:45.071Z,2400
2017-03-19T13:00:56.093Z,2196
2017-03-19T13:02:07.128Z,1716
2017-03-19T13:03:18.166Z,1772
2017-03-19T13:04:29.197Z,1652
2017-03-19T13:05:40.234Z,1416
2017-03-19T13:06:51.566Z,1404
2017-03-19T13:08:02.622Z,1728
2017-03-19T13:09:13.652Z,2180
2017-03-19T13:10:24.683Z,2592
2017-03-19T13:11:35.712Z,3116
2017-03-19T13:12:46.989Z,3608
2017-03-19T13:13:58.028Z,3568
2017-03-19T13:15:09.464Z,3264
2017-03-19T13:16:20.489Z,3336
2017-03-19T13:17:31.967Z,3788
2017-03-19T13:18:43.203Z,3972
2017-03-19T13:19:54.229Z,4440
2017-03-19T13:21:05.253Z,5768
2017-03-19T13:22:16.299Z,14496
2017-03-19T13:23:27.333Z,15040
2017-03-19T13:24:38.773Z,11660
2017-03-19T13:25:49.793Z,11820
2017-03-19T13:27:00.825Z,9732
2017-03-19T13:28:12.541Z,7968
2017-03-19T13:29:23.578Z,7548
2017-03-19T13:30:34.613Z,6676
2017-03-19T13:31:45.639Z,6056
2017-03-19T13:32:56.674Z,5436
2017-03-19T13:34:07.723Z,4712
2017-03-19T13:35:18.761Z,3776
2017-03-19T13:36:29.997Z,3148
2017-03-19T13:37:41.038Z,2792
2017-03-19T13:38:52.334Z,4380
2017-03-19T13:40:03.385Z,7240
2017-03-19T13:41:14.414Z,7220
2017-03-19T13:42:25.647Z,5780
2017-03-19T13:43:36.897Z,4596
2017-03-19T13:44:47.930Z,3924
2017-03-19T13:45:59.169Z,3996
2017-03-19T13:47:10.199Z,3948
2017-03-19T13:48:21.229Z,5356
2017-03-19T13:49:32.272Z,5840
2017-03-19T13:50:43.384Z,4580
2017-03-19T13:51:54.413Z,4572
2017-03-19T13:53:05.647Z,4204
2017-03-19T13:54:16.681Z,3564
2017-03-19T13:55:28.164Z,2940
2017-03-19T13:56:39.193Z,2664
2017-03-19T13:57:50.230Z,2332
2017-03-19T13:59:01.280Z,1996
2017-03-19T14:00:12.318Z,1768
2017-03-19T14:01:23.347Z,2220
2017-03-19T14:02:34.580Z,2460
2017-03-19T14:03:45.626Z,2132
2017-03-19T14:04:56.661Z,1504
2017-03-19T14:06:07.945Z,1396
2017-03-19T14:07:18.969Z,1768
2017-03-19T14:08:30.004Z,1896
2017-03-19T14:09:41.043Z,2224
2017-03-19T14:10:52.068Z,2860
2017-03-19T14:12:03.102Z,3088
2017-03-19T14:13:14.139Z,3652
2017-03-19T14:14:25.165Z,4764
2017-03-19T14:15:36.196Z,5456
2017-03-19T14:16:47.477Z,5064
2017-03-19T14:17:58.515Z,4288
2017-03-19T14:19:09.543Z,3936
2017-03-19T14:20:20.566Z,4196
2017-03-19T14:21:31.600Z,4040
2017-03-19T14:22:42.634Z,4044
2017-03-19T14:23:53.703Z,4432
2017-03-19T14:25:04.945Z,4504
2017-03-19T14:26:15.972Z,4608
2017-03-19T14:27:27.257Z,4216
2017-03-19T14:28:38.500Z,3960
2017-03-19T14:29:49.731Z,3756
2017-03-19T14:31:00.763Z,3428
2017-03-19T14:32:11.996Z,3168
2017-03-19T14:33:23.443Z,2920
2017-03-19T14:34:34.482Z,2908
2017-03-19T14:35:45.505Z,2788
2017-03-19T14:36:56.935Z,2940
2017-03-19T14:38:07.962Z,3140
2017-03-19T14:39:19.262Z,2928
2017-03-19T14:40:30.290Z,3312
2017-03-19T14:41:41.318Z,3956
2017-03-19T14:42:52.397Z,4464
2017-03-19T14:44:03.444Z,5052
2017-03-19T14:45:14.514Z,4520
2017-03-19T14:46:25.565Z,4128
2017-03-19T14:47:36.797Z,3688
2017-03-19T14:48:47.881Z,3388
2017-03-19T14:49:58.919Z,3000
2017-03-19T14:51:10.147Z,2820
2017-03-19T14:52:21.178Z,2744
2017-03-19T14:53:32.221Z,3008
2017-03-19T14:54:43.250Z,3204
2017-03-19T14:55:54.491Z,3400
2017-03-19T14:57:05.528Z,3576
2017-03-19T14:58:16.570Z,3420
2017-03-19T14:59:27.673Z,3092
2017-03-19T15:00:38.695Z,2840
2017-03-19T15:01:49.756Z,2680
2017-03-19T15:03:00.999Z,2796
2017-03-19T15:04:12.036Z,3268
2017-03-19T15:05:23.058Z,3548
2017-03-19T15:06:34.089Z,3264
2017-03-19T15:07:45.525Z,2976
2017-03-19T15:08:56.556Z,2788
2017-03-19T15:10:07.843Z,2648
2017-03-19T15:11:18.865Z,2420
2017-03-19T15:12:29.905Z,2236
2017-03-19T15:13:40.936Z,2076
2017-03-19T15:14:52.222Z,1900
2017-03-19T15:16:03.454Z,1864
2017-03-19T15:17:14.479Z,1776
2017-03-19T15:18:25.725Z,1720
2017-03-19T15:19:36.755Z,1800
2017-03-19T15:20:47.774Z,1596
2017-03-19T15:21:58.805Z,1824
2017-03-19T15:23:09.891Z,1784
2017-03-19T15:24:20.921Z,1564
2017-03-19T15:25:31.956Z,1608
2017-03-19T15:26:42.990Z,1548
2017-03-19T15:27:54.226Z,1540
2017-03-19T15:29:05.263Z,1424
2017-03-19T15:30:16.292Z,1548
2017-03-19T15:31:27.573Z,1660
2017-03-19T15:32:38.611Z,1564
2017-03-19T15:33:49.851Z,1852
2017-03-19T15:35:00.877Z,2272
2017-03-19T15:36:11.912Z,2120
2017-03-19T15:37:22.946Z,2076
2017-03-19T15:38:33.985Z,1900
2017-03-19T15:39:45.012Z,1736
2017-03-19T15:40:56.041Z,1628
2017-03-19T15:42:07.334Z,1536
2017-03-19T15:43:18.385Z,1620
2017-03-19T15:44:29.414Z,1752
2017-03-19T15:45:40.442Z,1784
2017-03-19T15:46:51.472Z,1764
2017-03-19T15:48:02.508Z,1608
2017-03-19T15:49:13.556Z,1376
2017-03-19T15:50:24.783Z,1200
2017-03-19T15:51:35.817Z,1132
2017-03-19T15:52:47.115Z,1204
2017-03-19T15:53:58.157Z,1232
2017-03-19T15:55:09.184Z,1340
2017-03-19T15:56:20.417Z,1180
2017-03-19T15:57:31.446Z,1076
2017-03-19T15:58:42.482Z,1088
2017-03-19T15:59:53.507Z,1184
2017-03-19T16:01:04.541Z,1316
2017-03-19T16:02:15.574Z,1424
2017-03-19T16:03:26.662Z,1376
2017-03-19T16:04:37.694Z,1152
2017-03-19T16:05:48.732Z,1036
2017-03-19T16:06:59.765Z,936
2017-03-19T16:08:10.798Z,784
2017-03-19T16:09:21.847Z,696
2017-03-19T16:10:32.875Z,636
2017-03-19T16:11:44.111Z,584
2017-03-19T16:12:55.143Z,552
2017-03-19T16:14:06.390Z,588
2017-03-19T16:15:17.837Z,636
2017-03-19T16:16:28.880Z,620
2017-03-19T16:17:39.906Z,588
2017-03-19T16:18:50.948Z,640
2017-03-19T16:20:02.035Z,760
2017-03-19T16:21:13.068Z,796
2017-03-19T16:22:24.105Z,812
2017-03-19T16:23:35.194Z,816